createdAt,value
2022-10-24T00:00:54.837Z,14.90
2022-10-24T00:07:55.058Z,14.90
2022-10-24T00:14:55.462Z,14.90
2022-10-24T00:21:56.024Z,14.90
2022-10-24T00:28:56.397Z,14.90
2022-10-24T00:35:57.023Z,14.90
2022-10-24T00:42:57.524Z,14.80
2022-10-24T00:50:18.298Z,14.90
2022-10-24T00:57:48.281Z,14.80
2022-10-24T01:04:49.480Z,14.80
2022-10-24T01:11:58.938Z,14.70
2022-10-24T01:19:36.606Z,14.80
2022-10-24T01:34:25.303Z,14.80
2022-10-24T01:41:29.919Z,14.80
2022-10-24T01:48:34.984Z,14.80
2022-10-24T01:55:37.814Z,14.80
2022-10-24T02:02:49.731Z,14.90
2022-10-24T02:09:54.292Z,14.90
2022-10-24T02:16:54.899Z,15.00
2022-10-24T02:24:02.992Z,15.00
2022-10-24T02:31:09.480Z,15.00
2022-10-24T02:38:19.975Z,15.00
2022-10-24T02:45:21.631Z,15.00
2022-10-24T02:52:24.219Z,15.10
2022-10-24T02:59:24.362Z,15.10
2022-10-24T03:06:25.061Z,15.10
2022-10-24T03:13:25.042Z,15.20
2022-10-24T03:20:25.538Z,15.20
2022-10-24T03:27:26.056Z,15.30
2022-10-24T03:34:26.544Z,15.30
2022-10-24T03:41:26.961Z,15.30
2022-10-24T03:48:27.645Z,15.30
2022-10-24T03:55:29.175Z,15.20
2022-10-24T04:02:29.771Z,15.20
2022-10-24T04:09:30.180Z,15.20
2022-10-24T04:16:33.992Z,15.10
2022-10-24T04:23:38.510Z,15.10
2022-10-24T04:30:38.651Z,15.10
2022-10-24T04:37:39.048Z,15.10
2022-10-24T04:44:39.643Z,15.20
2022-10-24T04:51:40.066Z,15.20
2022-10-24T04:58:40.984Z,15.20
2022-10-24T05:05:41.333Z,15.20
2022-10-24T05:12:42.244Z,15.20
2022-10-24T05:19:42.889Z,15.30
2022-10-24T05:26:43.149Z,15.30
2022-10-24T05:33:43.551Z,15.30
2022-10-24T05:40:47.522Z,15.40
2022-10-24T05:47:48.131Z,15.50
2022-10-24T05:55:02.422Z,15.50
2022-10-24T06:02:07.474Z,15.50
2022-10-24T06:09:08.169Z,15.50
2022-10-24T06:16:10.520Z,15.40
2022-10-24T06:23:10.787Z,15.40
2022-10-24T06:30:11.865Z,15.30
2022-10-24T06:37:12.159Z,15.30
2022-10-24T06:44:12.572Z,15.30
2022-10-24T06:51:16.297Z,15.30
2022-10-24T06:58:16.438Z,15.30
2022-10-24T07:05:17.136Z,15.30
2022-10-24T07:12:17.468Z,15.30
2022-10-24T07:19:18.265Z,15.30
2022-10-24T07:26:20.030Z,15.30
2022-10-24T07:33:20.514Z,15.40
2022-10-24T07:40:21.379Z,15.50
2022-10-24T07:47:21.739Z,15.60
2022-10-24T08:01:29.088Z,15.90
2022-10-24T08:08:36.668Z,16.10
2022-10-24T08:15:37.979Z,16.30
2022-10-24T08:22:38.454Z,16.40
2022-10-24T08:29:39.930Z,16.70
2022-10-24T08:36:40.051Z,16.80
2022-10-24T08:43:40.568Z,17.00
2022-10-24T08:50:48.457Z,17.20
2022-10-24T08:57:54.853Z,17.30
2022-10-24T09:05:23.739Z,17.50
2022-10-24T09:12:24.632Z,17.60
2022-10-24T09:19:27.447Z,17.70
2022-10-24T09:26:32.412Z,17.80
2022-10-24T09:33:36.244Z,17.90
2022-10-24T09:40:37.827Z,18.00
2022-10-24T09:47:41.935Z,18.10
2022-10-24T09:54:43.835Z,18.20
2022-10-24T10:01:45.598Z,18.20
2022-10-24T10:08:51.525Z,18.20
2022-10-24T10:15:55.760Z,18.20
2022-10-24T10:22:56.931Z,18.20
2022-10-24T10:30:12.249Z,18.20
2022-10-24T10:37:33.778Z,18.30
2022-10-24T10:44:41.064Z,18.30
2022-10-24T10:51:51.209Z,18.40
2022-10-24T10:59:20.183Z,18.40
2022-10-24T11:06:49.683Z,18.50
2022-10-24T11:14:03.139Z,18.50
2022-10-24T11:21:14.513Z,18.50
2022-10-24T11:28:19.225Z,18.60
2022-10-24T11:35:28.957Z,18.70
2022-10-24T11:42:58.134Z,18.70
2022-10-24T11:50:12.553Z,18.80
2022-10-24T11:57:20.303Z,18.70
2022-10-24T12:04:44.682Z,18.70
2022-10-24T12:12:20.084Z,18.60
2022-10-24T12:19:22.456Z,18.60
2022-10-24T12:26:35.796Z,18.60
2022-10-24T12:33:36.294Z,18.60
2022-10-24T12:40:45.814Z,18.60
2022-10-24T12:54:57.238Z,18.70
2022-10-24T13:02:13.149Z,18.70
2022-10-24T13:09:26.197Z,18.70
2022-10-24T13:16:54.535Z,18.70
2022-10-24T13:24:15.121Z,18.70
2022-10-24T13:31:15.251Z,18.60
2022-10-24T13:38:16.176Z,18.60
2022-10-24T13:45:31.742Z,18.60
2022-10-24T13:52:57.684Z,18.60
2022-10-24T14:00:01.200Z,18.80
2022-10-24T14:07:07.080Z,18.80
2022-10-24T14:14:26.146Z,18.80
2022-10-24T14:21:26.292Z,18.80
2022-10-24T14:28:30.860Z,18.80
2022-10-24T14:35:31.570Z,18.90
2022-10-24T14:42:32.398Z,18.80
2022-10-24T14:49:36.653Z,18.80
2022-10-24T14:56:39.421Z,18.80
2022-10-24T15:03:53.306Z,18.90
2022-10-24T15:11:04.798Z,18.90
2022-10-24T15:18:05.081Z,18.80
2022-10-24T15:25:16.535Z,18.80
2022-10-24T15:32:16.657Z,18.80
2022-10-24T15:39:26.380Z,18.80
2022-10-24T15:46:26.724Z,18.80
2022-10-24T15:53:27.295Z,18.80
2022-10-24T16:00:27.681Z,18.60
2022-10-24T16:07:27.970Z,18.50
2022-10-24T16:14:30.283Z,18.30
2022-10-24T16:21:30.370Z,18.20
2022-10-24T16:28:30.968Z,18.10
2022-10-24T16:35:33.990Z,17.90
2022-10-24T16:42:34.460Z,17.90
2022-10-24T16:49:35.169Z,17.80
2022-10-24T16:56:35.763Z,17.70
2022-10-24T17:03:36.686Z,17.60
2022-10-24T17:10:38.112Z,17.60
2022-10-24T17:17:39.787Z,17.50
2022-10-24T17:24:40.410Z,17.40
2022-10-24T17:31:40.735Z,17.40
2022-10-24T17:38:59.642Z,17.40
2022-10-24T17:46:00.034Z,17.30
2022-10-24T17:53:00.392Z,17.30
2022-10-24T18:00:01.497Z,17.30
2022-10-24T18:07:01.685Z,17.20
2022-10-24T18:14:02.046Z,17.20
2022-10-24T18:21:24.625Z,17.10
2022-10-24T18:28:24.755Z,17.00
2022-10-24T18:35:27.314Z,16.90
2022-10-24T18:42:39.465Z,16.90
2022-10-24T18:49:40.456Z,16.90
2022-10-24T18:56:42.207Z,16.80
2022-10-24T19:03:45.358Z,16.80
2022-10-24T19:10:46.409Z,16.70
2022-10-24T19:17:48.570Z,16.60
2022-10-24T19:24:48.718Z,16.60
2022-10-24T19:31:49.316Z,16.60
2022-10-24T19:38:57.495Z,16.60
2022-10-24T19:53:22.868Z,16.50
2022-10-24T20:00:23.336Z,16.40
2022-10-24T20:07:24.122Z,16.40
2022-10-24T20:14:25.202Z,16.30
2022-10-24T20:21:25.823Z,16.20
2022-10-24T20:28:26.754Z,16.10
2022-10-24T20:35:27.302Z,16.00
2022-10-24T20:42:28.152Z,16.00
2022-10-24T20:49:28.809Z,15.90
2022-10-24T20:56:29.371Z,15.90
2022-10-24T21:03:30.116Z,15.90
2022-10-24T21:10:30.636Z,15.90
2022-10-24T21:17:30.954Z,15.90
2022-10-24T21:24:31.792Z,15.90
2022-10-24T21:31:32.197Z,15.90
2022-10-24T21:38:32.701Z,15.90
2022-10-24T21:45:32.936Z,15.90
2022-10-24T21:52:33.347Z,15.80
2022-10-24T21:59:33.731Z,15.80
2022-10-24T22:06:35.523Z,15.70
2022-10-24T22:13:37.060Z,15.70
2022-10-24T22:20:37.636Z,15.70
2022-10-24T22:27:38.342Z,15.60
2022-10-24T22:34:39.447Z,15.50
2022-10-24T22:41:40.263Z,15.50
2022-10-24T22:48:44.291Z,15.40
2022-10-24T22:55:54.298Z,15.30
2022-10-24T23:03:12.040Z,15.30
2022-10-24T23:10:18.514Z,15.30
2022-10-24T23:17:25.285Z,15.30
2022-10-24T23:24:26.349Z,15.40
2022-10-24T23:31:27.257Z,15.30
2022-10-24T23:38:28.288Z,15.30
2022-10-24T23:45:34.370Z,15.10
2022-10-24T23:52:38.566Z,15.10
2022-10-24T23:59:38.941Z,15.00
